메인 페이지
METAR-TAF:

METAR-TAF

공항 :

Al Bahah, 사우디아라비아

위도: 20-18N, 경도: 041-38E, 고도: 1652m

현재 날씨관측

예보는 47분 전, 08:00시(UTC)에 발표되었습니다.
남동12kt
온도 31°C
습도 18%
기압 1019 hPa
시정 10km 이상
1500m 미만 상공 구름 및 적란운 없음

METAR: OEBA 040800Z 13012KT CAVOK 31/04 Q1019 NOSIG

시각: 11:47 (08:47 UTC)

예보

예보는 9 시간 47분 전, 23:00시(UTC)에 발표되었습니다.
예보 대상 시간: 04일 00시부터 05일 06시까지 (UTC)
여러 방향의 바람 3kt
시정: 7000m
고도 2000ft 상공 구름 조금
고도 8000ft 상공 구름 보통
전환 중
04일 06시부터 04일 08시까지 (UTC)
동남동8kt, 순간 최대 풍속 18kt
일시적
04일 06시부터 04일 16시까지 (UTC)
고도 2500ft 상공 구름 조금, 적란운.
고도 3000ft 상공 구름 보통

TAF: OEBA 032300Z 0400/0506 VRB03KT 7000 FEW020 SCT080 BECMG 0406/0408 11008G18KT TEMPO 0406/0416 FEW025CB SCT030

4,000개 이상의 공항 관측 자료 및 예보 (METAR 및 TAF 보고).

지도상에서 검색 가능한 기상관측소가 노란 점과 빨간 점으로 표시되어 있습니다.

기상관측소 명을 보려면 표시 위로 마우스를 이동하세요.

날씨 관측과 예보를 보려면 클릭하세요.

지도 변경 : 확대하려면 엑스 표시가 있는 녹색 버튼, 축소하려면 빼기 표시가 있는 녹색 버튼, 다음 페이지의 지도를 보려면 녹색 화살표를 클릭하세요.


METAR-TAF: